sensor_id;sensor_type;location;lat;lon;timestamp;pressure;altitude;pressure_sealevel;temperature;humidity
72909;BME280;61051;62.624;17.950;2023-06-22T00:00:06;100832.01;;;14.90;90.17
72909;BME280;61051;62.624;17.950;2023-06-22T00:02:34;100828.49;;;14.84;89.17
72909;BME280;61051;62.624;17.950;2023-06-22T00:05:04;100819.42;;;14.65;89.20
72909;BME280;61051;62.624;17.950;2023-06-22T00:07:32;100810.95;;;14.78;89.85
72909;BME280;61051;62.624;17.950;2023-06-22T00:10:00;100807.41;;;14.75;90.43
72909;BME280;61051;62.624;17.950;2023-06-22T00:12:30;100800.04;;;14.79;89.63
72909;BME280;61051;62.624;17.950;2023-06-22T00:14:58;100797.10;;;14.93;90.75
72909;BME280;61051;62.624;17.950;2023-06-22T00:17:26;100798.43;;;14.89;90.37
72909;BME280;61051;62.624;17.950;2023-06-22T00:19:55;100797.66;;;14.97;90.24
72909;BME280;61051;62.624;17.950;2023-06-22T00:22:23;100795.02;;;14.98;90.82
72909;BME280;61051;62.624;17.950;2023-06-22T00:24:51;100796.10;;;14.97;91.54
72909;BME280;61051;62.624;17.950;2023-06-22T00:27:20;100798.21;;;14.97;91.37
72909;BME280;61051;62.624;17.950;2023-06-22T00:29:48;100802.39;;;15.10;90.83
72909;BME280;61051;62.624;17.950;2023-06-22T00:32:16;100805.56;;;15.25;89.97
72909;BME280;61051;62.624;17.950;2023-06-22T00:34:45;100801.93;;;15.35;90.09
72909;BME280;61051;62.624;17.950;2023-06-22T00:37:15;100802.74;;;15.25;89.63
72909;BME280;61051;62.624;17.950;2023-06-22T00:39:44;100804.23;;;15.24;90.24
72909;BME280;61051;62.624;17.950;2023-06-22T00:42:13;100797.94;;;15.34;89.54
72909;BME280;61051;62.624;17.950;2023-06-22T00:44:43;100792.10;;;15.20;89.58
72909;BME280;61051;62.624;17.950;2023-06-22T00:47:11;100790.51;;;15.28;89.83
72909;BME280;61051;62.624;17.950;2023-06-22T00:49:40;100788.45;;;15.28;90.04
72909;BME280;61051;62.624;17.950;2023-06-22T00:52:10;100784.19;;;15.20;89.35
72909;BME280;61051;62.624;17.950;2023-06-22T00:54:40;100785.21;;;15.24;89.83
72909;BME280;61051;62.624;17.950;2023-06-22T00:57:08;100783.19;;;15.11;88.80
72909;BME280;61051;62.624;17.950;2023-06-22T00:59:36;100780.47;;;15.11;90.20
72909;BME280;61051;62.624;17.950;2023-06-22T01:02:05;100782.07;;;15.34;92.31
72909;BME280;61051;62.624;17.950;2023-06-22T01:04:36;100779.44;;;15.50;91.67
72909;BME280;61051;62.624;17.950;2023-06-22T01:07:10;100781.91;;;15.51;91.60
72909;BME280;61051;62.624;17.950;2023-06-22T01:09:47;100784.11;;;15.71;90.95
72909;BME280;61051;62.624;17.950;2023-06-22T01:12:18;100783.31;;;15.98;89.83
72909;BME280;61051;62.624;17.950;2023-06-22T01:14:52;100774.69;;;15.85;89.58
72909;BME280;61051;62.624;17.950;2023-06-22T01:17:24;100771.99;;;15.88;89.90
72909;BME280;61051;62.624;17.950;2023-06-22T01:19:55;100768.36;;;15.81;90.44
72909;BME280;61051;62.624;17.950;2023-06-22T01:22:30;100765.51;;;15.80;90.52
72909;BME280;61051;62.624;17.950;2023-06-22T01:25:09;100761.88;;;15.68;91.03
72909;BME280;61051;62.624;17.950;2023-06-22T01:27:46;100755.33;;;15.61;91.38
72909;BME280;61051;62.624;17.950;2023-06-22T01:30:18;100749.56;;;15.50;91.59
72909;BME280;61051;62.624;17.950;2023-06-22T01:32:47;100745.10;;;15.45;92.12
72909;BME280;61051;62.624;17.950;2023-06-22T01:35:17;100742.22;;;15.38;91.99
72909;BME280;61051;62.624;17.950;2023-06-22T01:37:46;100737.46;;;15.44;92.07
72909;BME280;61051;62.624;17.950;2023-06-22T01:40:22;100739.92;;;15.49;91.76
72909;BME280;61051;62.624;17.950;2023-06-22T01:42:51;100739.90;;;15.60;92.31
72909;BME280;61051;62.624;17.950;2023-06-22T01:45:20;100739.92;;;15.61;93.23
72909;BME280;61051;62.624;17.950;2023-06-22T01:47:49;100742.31;;;15.64;93.51
72909;BME280;61051;62.624;17.950;2023-06-22T01:50:17;100741.36;;;15.73;92.94
72909;BME280;61051;62.624;17.950;2023-06-22T01:52:45;100740.44;;;15.79;93.08
72909;BME280;61051;62.624;17.950;2023-06-22T01:55:14;100736.17;;;15.59;94.23
72909;BME280;61051;62.624;17.950;2023-06-22T01:57:44;100733.75;;;15.74;94.16
72909;BME280;61051;62.624;17.950;2023-06-22T02:00:16;100729.05;;;15.64;94.20
72909;BME280;61051;62.624;17.950;2023-06-22T02:02:57;100726.21;;;15.71;94.08
72909;BME280;61051;62.624;17.950;2023-06-22T02:08:08;100724.46;;;15.91;93.24
72909;BME280;61051;62.624;17.950;2023-06-22T02:10:38;100725.00;;;16.17;91.13
72909;BME280;61051;62.624;17.950;2023-06-22T02:13:09;100726.20;;;16.22;89.78
72909;BME280;61051;62.624;17.950;2023-06-22T02:15:39;100729.41;;;16.24;89.86
72909;BME280;61051;62.624;17.950;2023-06-22T02:18:07;100725.68;;;16.13;89.90
72909;BME280;61051;62.624;17.950;2023-06-22T02:20:37;100725.29;;;16.07;90.24
72909;BME280;61051;62.624;17.950;2023-06-22T02:23:06;100718.62;;;16.18;90.53
72909;BME280;61051;62.624;17.950;2023-06-22T02:25:34;100710.86;;;16.09;90.33
72909;BME280;61051;62.624;17.950;2023-06-22T02:28:04;100712.15;;;15.97;90.43
72909;BME280;61051;62.624;17.950;2023-06-22T02:30:32;100717.70;;;15.93;91.58
72909;BME280;61051;62.624;17.950;2023-06-22T02:33:01;100718.17;;;15.94;91.89
72909;BME280;61051;62.624;17.950;2023-06-22T02:35:30;100721.25;;;15.88;92.58
72909;BME280;61051;62.624;17.950;2023-06-22T02:38:00;100721.54;;;16.06;93.38
72909;BME280;61051;62.624;17.950;2023-06-22T02:40:29;100723.01;;;16.20;90.85
72909;BME280;61051;62.624;17.950;2023-06-22T02:42:58;100724.51;;;16.27;89.40
72909;BME280;61051;62.624;17.950;2023-06-22T02:45:27;100723.96;;;16.29;89.69
72909;BME280;61051;62.624;17.950;2023-06-22T02:47:56;100729.25;;;16.27;89.88
72909;BME280;61051;62.624;17.950;2023-06-22T02:50:25;100734.19;;;16.39;89.07
72909;BME280;61051;62.624;17.950;2023-06-22T02:52:56;100736.09;;;16.52;88.46
72909;BME280;61051;62.624;17.950;2023-06-22T02:55:24;100735.34;;;16.41;88.91
72909;BME280;61051;62.624;17.950;2023-06-22T02:57:55;100733.96;;;16.41;89.32
72909;BME280;61051;62.624;17.950;2023-06-22T03:00:24;100731.54;;;16.29;89.56
72909;BME280;61051;62.624;17.950;2023-06-22T03:02:54;100729.84;;;16.15;90.79
72909;BME280;61051;62.624;17.950;2023-06-22T03:05:23;100732.92;;;16.17;90.53
72909;BME280;61051;62.624;17.950;2023-06-22T03:07:53;100734.93;;;16.25;90.26
72909;BME280;61051;62.624;17.950;2023-06-22T03:10:22;100738.67;;;16.27;90.78
72909;BME280;61051;62.624;17.950;2023-06-22T03:12:50;100737.59;;;16.20;90.84
72909;BME280;61051;62.624;17.950;2023-06-22T03:15:19;100730.12;;;16.10;90.89
72909;BME280;61051;62.624;17.950;2023-06-22T03:17:49;100725.65;;;16.03;91.77
72909;BME280;61051;62.624;17.950;2023-06-22T03:20:17;100723.31;;;16.02;92.71
72909;BME280;61051;62.624;17.950;2023-06-22T03:22:45;100722.24;;;16.03;93.23
72909;BME280;61051;62.624;17.950;2023-06-22T03:25:13;100722.03;;;15.95;93.59
72909;BME280;61051;62.624;17.950;2023-06-22T03:27:42;100719.66;;;15.88;94.45
72909;BME280;61051;62.624;17.950;2023-06-22T03:30:12;100713.68;;;15.93;94.25
72909;BME280;61051;62.624;17.950;2023-06-22T03:32:40;100708.98;;;15.93;93.72
72909;BME280;61051;62.624;17.950;2023-06-22T03:35:10;100704.83;;;15.99;93.34
72909;BME280;61051;62.624;17.950;2023-06-22T03:37:38;100707.33;;;16.04;93.24
72909;BME280;61051;62.624;17.950;2023-06-22T03:40:08;100709.44;;;15.99;94.16
72909;BME280;61051;62.624;17.950;2023-06-22T03:42:37;100706.27;;;16.04;93.89
72909;BME280;61051;62.624;17.950;2023-06-22T03:45:06;100700.90;;;16.05;94.14
72909;BME280;61051;62.624;17.950;2023-06-22T03:47:36;100701.41;;;16.09;95.06
72909;BME280;61051;62.624;17.950;2023-06-22T03:50:05;100715.46;;;16.10;95.41
72909;BME280;61051;62.624;17.950;2023-06-22T03:52:34;100723.09;;;16.38;93.55
72909;BME280;61051;62.624;17.950;2023-06-22T03:55:03;100721.07;;;16.39;92.02
72909;BME280;61051;62.624;17.950;2023-06-22T03:57:32;100722.24;;;16.43;92.96
72909;BME280;61051;62.624;17.950;2023-06-22T04:03:20;100714.59;;;16.13;94.09
72909;BME280;61051;62.624;17.950;2023-06-22T04:05:49;100713.51;;;16.71;91.53
72909;BME280;61051;62.624;17.950;2023-06-22T04:08:18;100706.25;;;16.60;90.95
72909;BME280;61051;62.624;17.950;2023-06-22T04:10:47;100709.37;;;16.52;92.22
72909;BME280;61051;62.624;17.950;2023-06-22T04:13:15;100712.37;;;16.70;93.25
72909;BME280;61051;62.624;17.950;2023-06-22T04:15:45;100705.91;;;16.63;92.33
72909;BME280;61051;62.624;17.950;2023-06-22T04:18:14;100703.53;;;16.53;92.15
72909;BME280;61051;62.624;17.950;2023-06-22T04:20:43;100707.82;;;16.69;91.76
72909;BME280;61051;62.624;17.950;2023-06-22T04:23:11;100703.20;;;16.72;90.94
72909;BME280;61051;62.624;17.950;2023-06-22T04:25:39;100701.41;;;16.63;92.16
72909;BME280;61051;62.624;17.950;2023-06-22T04:28:08;100698.90;;;16.56;93.11
72909;BME280;61051;62.624;17.950;2023-06-22T04:30:36;100699.21;;;16.58;94.42
72909;BME280;61051;62.624;17.950;2023-06-22T04:33:04;100698.98;;;16.49;93.91
72909;BME280;61051;62.624;17.950;2023-06-22T04:35:32;100698.42;;;16.57;93.54
72909;BME280;61051;62.624;17.950;2023-06-22T04:38:02;100696.91;;;16.56;91.61
72909;BME280;61051;62.624;17.950;2023-06-22T04:40:30;100699.69;;;16.62;92.41
72909;BME280;61051;62.624;17.950;2023-06-22T04:43:00;100703.11;;;16.54;93.29
72909;BME280;61051;62.624;17.950;2023-06-22T04:45:29;100699.16;;;16.61;93.32
72909;BME280;61051;62.624;17.950;2023-06-22T04:47:57;100701.64;;;16.51;92.19
72909;BME280;61051;62.624;17.950;2023-06-22T04:50:27;100704.23;;;16.60;93.45
72909;BME280;61051;62.624;17.950;2023-06-22T04:52:57;100700.41;;;16.64;93.62
72909;BME280;61051;62.624;17.950;2023-06-22T04:55:26;100699.50;;;16.61;92.51
72909;BME280;61051;62.624;17.950;2023-06-22T04:57:57;100699.34;;;16.47;91.23
72909;BME280;61051;62.624;17.950;2023-06-22T05:00:26;100700.13;;;16.51;91.12
72909;BME280;61051;62.624;17.950;2023-06-22T05:02:56;100690.99;;;16.57;91.92
72909;BME280;61051;62.624;17.950;2023-06-22T05:05:26;100692.34;;;16.44;92.90
72909;BME280;61051;62.624;17.950;2023-06-22T05:07:57;100693.17;;;16.44;93.21
72909;BME280;61051;62.624;17.950;2023-06-22T05:10:25;100693.88;;;16.44;93.62
72909;BME280;61051;62.624;17.950;2023-06-22T05:12:54;100689.97;;;16.49;93.74
72909;BME280;61051;62.624;17.950;2023-06-22T05:15:24;100690.39;;;16.43;93.28
72909;BME280;61051;62.624;17.950;2023-06-22T05:17:52;100692.11;;;16.49;94.25
72909;BME280;61051;62.624;17.950;2023-06-22T05:20:21;100696.41;;;16.37;95.07
72909;BME280;61051;62.624;17.950;2023-06-22T05:22:49;100693.43;;;16.45;95.12
72909;BME280;61051;62.624;17.950;2023-06-22T05:25:18;100691.80;;;16.45;95.59
72909;BME280;61051;62.624;17.950;2023-06-22T05:27:47;100690.89;;;16.30;94.57
72909;BME280;61051;62.624;17.950;2023-06-22T05:30:15;100686.98;;;16.32;96.37
72909;BME280;61051;62.624;17.950;2023-06-22T05:32:43;100683.56;;;16.42;95.12
72909;BME280;61051;62.624;17.950;2023-06-22T05:35:12;100680.05;;;16.30;96.07
72909;BME280;61051;62.624;17.950;2023-06-22T05:37:41;100674.78;;;16.52;97.08
72909;BME280;61051;62.624;17.950;2023-06-22T05:40:11;100670.48;;;16.46;96.09
72909;BME280;61051;62.624;17.950;2023-06-22T05:42:40;100666.22;;;16.45;95.38
72909;BME280;61051;62.624;17.950;2023-06-22T05:45:09;100663.78;;;16.45;96.39
72909;BME280;61051;62.624;17.950;2023-06-22T05:47:38;100663.87;;;16.62;95.89
72909;BME280;61051;62.624;17.950;2023-06-22T05:50:08;100663.94;;;16.68;95.83
72909;BME280;61051;62.624;17.950;2023-06-22T05:52:36;100661.19;;;16.71;94.97
72909;BME280;61051;62.624;17.950;2023-06-22T05:55:05;100661.54;;;16.71;95.76
72909;BME280;61051;62.624;17.950;2023-06-22T05:57:33;100653.71;;;16.69;95.71
72909;BME280;61051;62.624;17.950;2023-06-22T06:00:02;100650.73;;;16.78;94.48
72909;BME280;61051;62.624;17.950;2023-06-22T06:02:31;100649.08;;;16.89;94.26
72909;BME280;61051;62.624;17.950;2023-06-22T06:05:00;100644.69;;;16.91;94.25
72909;BME280;61051;62.624;17.950;2023-06-22T06:07:28;100644.66;;;17.06;95.15
72909;BME280;61051;62.624;17.950;2023-06-22T06:09:57;100641.31;;;17.35;95.93
72909;BME280;61051;62.624;17.950;2023-06-22T06:12:25;100640.87;;;17.44;94.07
72909;BME280;61051;62.624;17.950;2023-06-22T06:14:55;100642.44;;;17.65;93.73
72909;BME280;61051;62.624;17.950;2023-06-22T06:17:24;100645.17;;;17.54;92.53
72909;BME280;61051;62.624;17.950;2023-06-22T06:19:52;100648.26;;;17.65;90.57
72909;BME280;61051;62.624;17.950;2023-06-22T06:22:22;100650.26;;;17.61;91.49
72909;BME280;61051;62.624;17.950;2023-06-22T06:24:51;100649.97;;;17.52;90.48
72909;BME280;61051;62.624;17.950;2023-06-22T06:27:20;100644.91;;;17.58;89.64
72909;BME280;61051;62.624;17.950;2023-06-22T06:29:48;100643.74;;;17.61;90.52
72909;BME280;61051;62.624;17.950;2023-06-22T06:32:16;100640.36;;;17.65;90.10
72909;BME280;61051;62.624;17.950;2023-06-22T06:34:44;100639.33;;;17.70;90.91
72909;BME280;61051;62.624;17.950;2023-06-22T06:37:13;100633.78;;;17.92;89.35
72909;BME280;61051;62.624;17.950;2023-06-22T06:39:41;100633.91;;;18.08;86.83
72909;BME280;61051;62.624;17.950;2023-06-22T06:42:10;100630.84;;;18.14;86.19
72909;BME280;61051;62.624;17.950;2023-06-22T06:44:38;100635.34;;;17.99;86.02
72909;BME280;61051;62.624;17.950;2023-06-22T06:47:06;100635.76;;;17.87;86.19
72909;BME280;61051;62.624;17.950;2023-06-22T06:49:35;100635.61;;;17.71;86.75
72909;BME280;61051;62.624;17.950;2023-06-22T06:52:05;100634.14;;;17.63;87.60
72909;BME280;61051;62.624;17.950;2023-06-22T06:54:33;100637.83;;;17.54;88.59
72909;BME280;61051;62.624;17.950;2023-06-22T06:57:02;100639.14;;;17.59;88.76
72909;BME280;61051;62.624;17.950;2023-06-22T06:59:30;100641.25;;;17.58;89.11
72909;BME280;61051;62.624;17.950;2023-06-22T07:01:58;100640.76;;;17.63;89.88
72909;BME280;61051;62.624;17.950;2023-06-22T07:04:27;100641.65;;;17.69;88.55
72909;BME280;61051;62.624;17.950;2023-06-22T07:07:00;100643.81;;;17.65;89.31
72909;BME280;61051;62.624;17.950;2023-06-22T07:09:30;100644.04;;;17.58;88.64
72909;BME280;61051;62.624;17.950;2023-06-22T07:11:59;100646.19;;;17.60;89.07
72909;BME280;61051;62.624;17.950;2023-06-22T07:14:27;100643.83;;;17.75;89.24
72909;BME280;61051;62.624;17.950;2023-06-22T07:16:57;100648.16;;;17.71;88.45
72909;BME280;61051;62.624;17.950;2023-06-22T07:19:26;100649.73;;;17.71;88.26
72909;BME280;61051;62.624;17.950;2023-06-22T07:21:56;100647.91;;;17.86;87.58
72909;BME280;61051;62.624;17.950;2023-06-22T07:24:24;100647.66;;;18.01;87.92
72909;BME280;61051;62.624;17.950;2023-06-22T07:26:53;100648.40;;;18.13;86.23
72909;BME280;61051;62.624;17.950;2023-06-22T07:29:22;100651.03;;;18.12;85.28
72909;BME280;61051;62.624;17.950;2023-06-22T07:31:51;100648.46;;;18.03;85.72
72909;BME280;61051;62.624;17.950;2023-06-22T07:34:20;100644.63;;;18.02;86.92
72909;BME280;61051;62.624;17.950;2023-06-22T07:36:48;100645.60;;;18.14;86.26
72909;BME280;61051;62.624;17.950;2023-06-22T07:39:16;100647.40;;;18.11;86.37
72909;BME280;61051;62.624;17.950;2023-06-22T07:41:45;100644.00;;;17.99;86.65
72909;BME280;61051;62.624;17.950;2023-06-22T07:44:14;100645.55;;;18.13;86.95
72909;BME280;61051;62.624;17.950;2023-06-22T07:46:44;100640.80;;;18.35;86.47
72909;BME280;61051;62.624;17.950;2023-06-22T07:49:12;100638.83;;;18.45;86.43
72909;BME280;61051;62.624;17.950;2023-06-22T07:51:39;100644.38;;;18.62;86.60
72909;BME280;61051;62.624;17.950;2023-06-22T07:54:09;100645.12;;;18.79;87.57
72909;BME280;61051;62.624;17.950;2023-06-22T07:56:38;100646.74;;;19.02;84.23
72909;BME280;61051;62.624;17.950;2023-06-22T07:59:07;100646.46;;;18.98;84.51
72909;BME280;61051;62.624;17.950;2023-06-22T08:01:36;100647.03;;;18.85;84.14
72909;BME280;61051;62.624;17.950;2023-06-22T08:04:04;100645.74;;;18.79;84.37
72909;BME280;61051;62.624;17.950;2023-06-22T08:06:33;100642.73;;;19.09;81.71
72909;BME280;61051;62.624;17.950;2023-06-22T08:09:01;100640.60;;;19.21;79.79
72909;BME280;61051;62.624;17.950;2023-06-22T08:11:30;100640.95;;;19.27;78.97
72909;BME280;61051;62.624;17.950;2023-06-22T08:13:59;100636.80;;;19.36;79.13
72909;BME280;61051;62.624;17.950;2023-06-22T08:16:27;100638.59;;;19.47;80.53
72909;BME280;61051;62.624;17.950;2023-06-22T08:18:57;100638.90;;;19.56;80.19
72909;BME280;61051;62.624;17.950;2023-06-22T08:21:25;100638.25;;;19.69;78.50
72909;BME280;61051;62.624;17.950;2023-06-22T08:23:56;100634.98;;;19.85;80.16
72909;BME280;61051;62.624;17.950;2023-06-22T08:26:25;100638.00;;;19.81;78.33
72909;BME280;61051;62.624;17.950;2023-06-22T08:28:56;100637.43;;;19.78;79.24
72909;BME280;61051;62.624;17.950;2023-06-22T08:31:25;100635.85;;;19.88;80.46
72909;BME280;61051;62.624;17.950;2023-06-22T08:33:53;100639.47;;;19.89;78.96
72909;BME280;61051;62.624;17.950;2023-06-22T08:36:22;100638.76;;;20.00;78.41
72909;BME280;61051;62.624;17.950;2023-06-22T08:38:51;100638.31;;;20.13;78.16
72909;BME280;61051;62.624;17.950;2023-06-22T08:41:20;100634.70;;;20.20;76.48
72909;BME280;61051;62.624;17.950;2023-06-22T08:43:49;100631.78;;;20.28;76.53
72909;BME280;61051;62.624;17.950;2023-06-22T08:46:19;100629.32;;;20.38;76.42
72909;BME280;61051;62.624;17.950;2023-06-22T08:48:48;100629.49;;;20.75;78.47
72909;BME280;61051;62.624;17.950;2023-06-22T08:51:16;100629.26;;;21.10;76.06
72909;BME280;61051;62.624;17.950;2023-06-22T08:53:44;100630.83;;;21.54;74.40
72909;BME280;61051;62.624;17.950;2023-06-22T08:56:14;100626.55;;;21.99;69.19
72909;BME280;61051;62.624;17.950;2023-06-22T08:58:43;100629.89;;;22.03;66.94
72909;BME280;61051;62.624;17.950;2023-06-22T09:01:12;100631.77;;;21.94;69.84
72909;BME280;61051;62.624;17.950;2023-06-22T09:03:40;100626.90;;;22.15;69.80
72909;BME280;61051;62.624;17.950;2023-06-22T09:06:09;100627.37;;;22.52;68.89
72909;BME280;61051;62.624;17.950;2023-06-22T09:08:37;100633.05;;;22.76;66.84
72909;BME280;61051;62.624;17.950;2023-06-22T09:11:06;100633.64;;;22.65;66.43
72909;BME280;61051;62.624;17.950;2023-06-22T09:13:34;100626.20;;;22.09;67.09
72909;BME280;61051;62.624;17.950;2023-06-22T09:16:02;100626.34;;;21.79;68.57
72909;BME280;61051;62.624;17.950;2023-06-22T09:18:31;100624.78;;;21.63;70.20
72909;BME280;61051;62.624;17.950;2023-06-22T09:20:59;100623.46;;;21.69;70.88
72909;BME280;61051;62.624;17.950;2023-06-22T09:23:29;100622.43;;;21.28;71.58
72909;BME280;61051;62.624;17.950;2023-06-22T09:25:57;100629.28;;;20.81;73.29
72909;BME280;61051;62.624;17.950;2023-06-22T09:28:26;100630.74;;;20.63;73.92
72909;BME280;61051;62.624;17.950;2023-06-22T09:30:56;100633.73;;;20.16;75.43
72909;BME280;61051;62.624;17.950;2023-06-22T09:33:25;100640.36;;;19.87;76.79
72909;BME280;61051;62.624;17.950;2023-06-22T09:35:54;100642.58;;;19.78;77.77
72909;BME280;61051;62.624;17.950;2023-06-22T09:38:23;100645.18;;;19.67;78.91
72909;BME280;61051;62.624;17.950;2023-06-22T09:40:52;100647.34;;;19.69;79.38
72909;BME280;61051;62.624;17.950;2023-06-22T09:43:22;100643.87;;;19.60;79.71
72909;BME280;61051;62.624;17.950;2023-06-22T09:45:50;100644.47;;;19.44;79.84
72909;BME280;61051;62.624;17.950;2023-06-22T09:48:18;100645.11;;;19.31;79.96
72909;BME280;61051;62.624;17.950;2023-06-22T09:50:46;100645.12;;;19.43;80.26
72909;BME280;61051;62.624;17.950;2023-06-22T09:53:15;100645.09;;;19.63;80.62
72909;BME280;61051;62.624;17.950;2023-06-22T09:55:43;100644.04;;;19.80;78.28
72909;BME280;61051;62.624;17.950;2023-06-22T09:58:11;100635.24;;;20.03;76.81
72909;BME280;61051;62.624;17.950;2023-06-22T10:03:21;100640.24;;;19.76;78.63
72909;BME280;61051;62.624;17.950;2023-06-22T10:05:50;100643.75;;;19.80;77.73
72909;BME280;61051;62.624;17.950;2023-06-22T10:08:19;100643.81;;;19.81;77.46
72909;BME280;61051;62.624;17.950;2023-06-22T10:10:48;100642.80;;;19.70;78.03
72909;BME280;61051;62.624;17.950;2023-06-22T10:13:16;100640.45;;;19.95;77.20
72909;BME280;61051;62.624;17.950;2023-06-22T10:15:46;100634.29;;;20.00;76.88
72909;BME280;61051;62.624;17.950;2023-06-22T10:18:14;100630.93;;;20.12;77.11
72909;BME280;61051;62.624;17.950;2023-06-22T10:20:42;100629.43;;;20.13;77.05
72909;BME280;61051;62.624;17.950;2023-06-22T10:23:10;100629.60;;;19.99;78.55
72909;BME280;61051;62.624;17.950;2023-06-22T10:25:39;100627.07;;;20.00;76.48
72909;BME280;61051;62.624;17.950;2023-06-22T10:28:07;100631.86;;;20.00;77.58
72909;BME280;61051;62.624;17.950;2023-06-22T10:30:36;100628.03;;;19.88;78.50
72909;BME280;61051;62.624;17.950;2023-06-22T10:33:05;100627.13;;;20.12;78.53
72909;BME280;61051;62.624;17.950;2023-06-22T10:35:34;100623.34;;;20.19;77.50
72909;BME280;61051;62.624;17.950;2023-06-22T10:38:03;100620.41;;;20.56;76.52
72909;BME280;61051;62.624;17.950;2023-06-22T10:40:32;100620.69;;;20.85;75.61
72909;BME280;61051;62.624;17.950;2023-06-22T10:43:02;100617.20;;;20.98;74.63
72909;BME280;61051;62.624;17.950;2023-06-22T10:45:32;100612.78;;;21.05;73.90
72909;BME280;61051;62.624;17.950;2023-06-22T10:48:01;100609.75;;;21.09;73.60
72909;BME280;61051;62.624;17.950;2023-06-22T10:50:29;100607.85;;;21.04;74.79
72909;BME280;61051;62.624;17.950;2023-06-22T10:52:58;100609.90;;;21.10;73.80
72909;BME280;61051;62.624;17.950;2023-06-22T10:55:27;100610.53;;;21.00;72.97
72909;BME280;61051;62.624;17.950;2023-06-22T10:57:55;100611.25;;;21.02;73.33
72909;BME280;61051;62.624;17.950;2023-06-22T11:00:23;100609.78;;;21.07;74.45
72909;BME280;61051;62.624;17.950;2023-06-22T11:02:51;100612.09;;;21.22;74.48
72909;BME280;61051;62.624;17.950;2023-06-22T11:05:20;100612.19;;;21.31;74.53
72909;BME280;61051;62.624;17.950;2023-06-22T11:07:48;100615.95;;;21.51;73.03
72909;BME280;61051;62.624;17.950;2023-06-22T11:10:17;100612.08;;;21.89;71.53
72909;BME280;61051;62.624;17.950;2023-06-22T11:12:46;100610.01;;;22.21;69.59
72909;BME280;61051;62.624;17.950;2023-06-22T11:15:15;100612.87;;;22.48;67.20
72909;BME280;61051;62.624;17.950;2023-06-22T11:17:44;100620.20;;;22.30;68.45
72909;BME280;61051;62.624;17.950;2023-06-22T11:20:12;100624.38;;;22.53;67.36
72909;BME280;61051;62.624;17.950;2023-06-22T11:22:41;100627.70;;;22.75;67.69
72909;BME280;61051;62.624;17.950;2023-06-22T11:25:09;100634.48;;;22.85;65.74
72909;BME280;61051;62.624;17.950;2023-06-22T11:27:38;100633.33;;;23.38;65.38
72909;BME280;61051;62.624;17.950;2023-06-22T11:30:08;100632.62;;;23.56;64.01
72909;BME280;61051;62.624;17.950;2023-06-22T11:32:37;100628.24;;;23.54;62.48
72909;BME280;61051;62.624;17.950;2023-06-22T11:35:05;100622.54;;;23.91;63.82
72909;BME280;61051;62.624;17.950;2023-06-22T11:37:34;100620.73;;;24.42;62.11
72909;BME280;61051;62.624;17.950;2023-06-22T11:40:03;100615.80;;;25.29;61.03
72909;BME280;61051;62.624;17.950;2023-06-22T11:42:32;100609.47;;;27.64;52.09
72909;BME280;61051;62.624;17.950;2023-06-22T11:45:02;100605.45;;;28.11;50.01
72909;BME280;61051;62.624;17.950;2023-06-22T11:47:30;100600.90;;;27.19;52.54
72909;BME280;61051;62.624;17.950;2023-06-22T11:50:00;100596.00;;;28.59;47.08
72909;BME280;61051;62.624;17.950;2023-06-22T11:52:30;100584.00;;;30.49;42.47
72909;BME280;61051;62.624;17.950;2023-06-22T11:54:58;100581.07;;;32.13;39.75
72909;BME280;61051;62.624;17.950;2023-06-22T11:57:26;100584.66;;;32.89;37.48
72909;BME280;61051;62.624;17.950;2023-06-22T11:59:55;100580.27;;;32.82;38.00
72909;BME280;61051;62.624;17.950;2023-06-22T12:02:23;100580.16;;;33.23;35.21
72909;BME280;61051;62.624;17.950;2023-06-22T12:04:51;100578.17;;;33.70;33.72
72909;BME280;61051;62.624;17.950;2023-06-22T12:07:20;100582.08;;;32.45;36.48
72909;BME280;61051;62.624;17.950;2023-06-22T12:09:48;100577.93;;;32.39;36.82
72909;BME280;61051;62.624;17.950;2023-06-22T12:12:16;100575.00;;;33.19;34.04
72909;BME280;61051;62.624;17.950;2023-06-22T12:14:45;100571.97;;;33.83;32.47
72909;BME280;61051;62.624;17.950;2023-06-22T12:17:13;100572.24;;;33.62;32.43
72909;BME280;61051;62.624;17.950;2023-06-22T12:19:41;100581.49;;;32.69;33.25
72909;BME280;61051;62.624;17.950;2023-06-22T12:22:09;100579.71;;;29.14;39.96
72909;BME280;61051;62.624;17.950;2023-06-22T12:24:37;100585.75;;;26.97;46.12
72909;BME280;61051;62.624;17.950;2023-06-22T12:27:06;100595.98;;;25.91;49.61
72909;BME280;61051;62.624;17.950;2023-06-22T12:29:34;100615.57;;;24.61;54.48
72909;BME280;61051;62.624;17.950;2023-06-22T12:32:03;100639.02;;;23.47;57.98
72909;BME280;61051;62.624;17.950;2023-06-22T12:34:33;100648.13;;;22.75;64.16
72909;BME280;61051;62.624;17.950;2023-06-22T12:37:02;100643.90;;;23.24;63.76
72909;BME280;61051;62.624;17.950;2023-06-22T12:39:30;100636.80;;;25.89;54.46
72909;BME280;61051;62.624;17.950;2023-06-22T12:41:58;100627.72;;;27.29;50.77
72909;BME280;61051;62.624;17.950;2023-06-22T12:44:26;100625.40;;;27.76;50.33
72909;BME280;61051;62.624;17.950;2023-06-22T12:46:55;100629.03;;;25.59;53.01
72909;BME280;61051;62.624;17.950;2023-06-22T12:49:24;100630.51;;;24.37;57.91
72909;BME280;61051;62.624;17.950;2023-06-22T12:51:52;100630.10;;;26.40;56.01
72909;BME280;61051;62.624;17.950;2023-06-22T12:54:20;100628.72;;;29.34;47.62
72909;BME280;61051;62.624;17.950;2023-06-22T12:56:50;100628.06;;;30.67;42.15